Home > Products > Valid Products > TAF

000
FTUS42 KGSP 241457 AAA
TAFCLT
TAF AMD
KCLT 241457Z 2415/2512 23006KT P6SM SCT250
     FM250000 20003KT P6SM FEW070=



000
FTUS42 KGSP 241120
TAFAVL
TAF
KAVL 241120Z 2412/2512 18004KT P6SM FEW070
     FM241700 19006KT P6SM FEW080 SCT250
     FM250100 00000KT P6SM FEW090 BKN250=



000
FTUS42 KGSP 241120
TAFGSP
TAF
KGSP 241120Z 2412/2512 VRB03KT P6SM FEW070
     FM241500 23006KT P6SM SCT250
     FM250200 23003KT P6SM SCT250=



000
FTUS42 KGSP 241120
TAFCLT
TAF
KCLT 241120Z 2412/2512 33003KT P6SM FEW070
     FM241500 23006KT P6SM SCT250
     FM250000 20003KT P6SM FEW070=



000
FTUS42 KGSP 241055 AAB
TAFAVL
TAF AMD
KAVL 241055Z 2411/2506 00000KT 5SM BR SCT002
      TEMPO 2411/2412 1/2SM FG VV002
     FM241300 18004KT P6SM FEW070
     FM241700 19007KT P6SM FEW080
     FM250100 00000KT P6SM FEW090=



000
FTUS42 KGSP 232335
TAFGSP
TAF
KGSP 232335Z 2400/2424 09007KT P6SM BKN060
     FM240300 12003KT P6SM SCT050
     FM240900 00000KT P6SM FEW060
     FM241900 22006KT P6SM SCT050=



000
FTUS42 KGSP 232335
TAFCLT
TAF
KCLT 232335Z 2400/2424 03006KT P6SM FEW050
     FM240200 10003KT P6SM SCT070
     FM241300 23003KT P6SM SCT070
     FM241900 23006KT P6SM FEW050 SCT250=



000
FTUS42 KGSP 232335
TAFAVL
TAF
KAVL 232335Z 2400/2424 36005KT P6SM BKN060
     FM240100 31004KT P6SM SCT070
     FM240900 00000KT 3SM BR SCT003
     FM241200 VRB02KT P6SM FEW030
     FM241900 30006KT P6SM FEW060=



000
FTUS42 KGSP 231501 AAB
TAFGSP
TAF AMD
KGSP 231501Z 2315/2412 36009G17KT P6SM SCT250
     FM231700 02008KT P6SM FEW070
     FM232100 04004KT P6SM SCT070
     FM240000 10003KT P6SM SCT070
     FM240800 00000KT P6SM FEW060=



000
FTUS42 KGSP 231453 AAA
TAFCLT
TAF AMD
KCLT 231453Z 2315/2412 34006KT P6SM SCT060 SCT250
     FM231700 01008KT P6SM BKN060
     FM232300 03004KT P6SM SCT060
     FM240200 10003KT P6SM SCT060
     FM240700 00000KT P6SM FEW060=



000
FTUS42 KGSP 231258 AAA
TAFAVL
TAF AMD
KAVL 231258Z 2313/2412 35007KT P6SM SKC
     FM231500 35010G18KT P6SM SCT050
     FM232300 34006KT P6SM FEW060
     FM240200 VRB03KT P6SM FEW080
     FM241100 00000KT 3SM BR FEW005=



000
FTUS42 KGSP 231130
TAFCLT
TAF
KCLT 231130Z 2312/2412 34006KT P6SM SCT250
     FM231700 01008KT P6SM BKN060
     FM232300 03004KT P6SM SCT060
     FM240200 10003KT P6SM SCT060
     FM240700 00000KT P6SM FEW060=



000
FTUS42 KGSP 231130
TAFAVL
TAF
KAVL 231130Z 2312/2412 00000KT 1 1/2SM BR BKN003
      TEMPO 2312/2313 1/2SM FG VV001
     FM231330 35010G18KT P6SM SCT050
     FM232300 34006KT P6SM FEW060
     FM240200 VRB03KT P6SM FEW080
     FM241100 00000KT 3SM BR FEW005=



000
FTUS42 KGSP 231130
TAFGSP
TAF
KGSP 231130Z 2312/2412 33004KT P6SM SCT250
     FM231500 02008KT P6SM FEW070
     FM232100 04004KT P6SM SCT070
     FM240000 10003KT P6SM SCT070
     FM240800 00000KT P6SM FEW060=



000
FTUS42 KGSP 231025 AAB
TAFAVL
TAF AMD
KAVL 231025Z 2310/2406 18003KT 1SM BR BKN003
      TEMPO 2310/2312 1/4SM FG VV001
     FM231300 35010G18KT P6SM SCT050
     FM232100 34008KT P6SM SCT050 BKN120
     FM240100 34003KT P6SM SCT060=



000
FTUS42 KGSP 231018 AAA
TAFAVL
TAF AMD
KAVL 231018Z 2310/2406 18003KT 1SM BR SCT003
      TEMPO 2310/2312 1/2SM FG VV002
     FM231300 35010G18KT P6SM SCT050
     FM232100 34008KT P6SM SCT050 BKN120
     FM240100 34003KT P6SM SCT060=



000
FTUS42 KGSP 230106 AAA
TAFCLT
TAF AMD
KCLT 230106Z 2301/2324 35007KT P6SM VCSH SCT080 BKN150
     FM230600 36004KT P6SM SCT070
     FM231400 35009KT P6SM SCT080 BKN250=



000
FTUS42 KGSP 222011 AAA
TAFGSP
TAF AMD
KGSP 222011Z 2220/2318 34007KT P6SM FEW060 SCT250
     FM230500 31003KT P6SM FEW250
     FM231400 36007KT P6SM FEW250=



000
FTUS42 KGSP 221720
TAFGSP
TAF
KGSP 221720Z 2218/2318 36011G18KT P6SM FEW060 FEW250
     FM222300 34007KT P6SM FEW200
     FM230500 31003KT P6SM FEW250
     FM231400 36007KT P6SM FEW250=



000
FTUS42 KGSP 221720
TAFAVL
TAF
KAVL 221720Z 2218/2318 34017G29KT P6SM BKN040 BKN250
     FM222300 33013G21KT P6SM FEW200
     FM230100 33008KT P6SM FEW070
     FM230400 34004KT P6SM FEW200
     FM231300 33008KT P6SM FEW250
     FM231500 34013G18KT P6SM FEW250=



000
FTUS42 KGSP 221720
TAFCLT
TAF
KCLT 221720Z 2218/2318 34011G18KT P6SM SCT050
     FM221900 34011G19KT P6SM VCSH SCT060
     FM222300 33006KT P6SM SCT070
     FM230700 34003KT P6SM FEW080
     FM231400 36007KT P6SM SCT200=



000
FTUS42 KGSP 221458 AAA
TAFCLT
TAF AMD
KCLT 221458Z 2215/2312 35012G21KT P6SM SCT040 OVC080
     FM221900 35014G23KT P6SM VCSH FEW050 SCT060
     FM222300 34011KT P6SM SCT070
     FM230100 32003KT P6SM FEW070 SCT100=



000
FTUS42 KGSP 221123
TAFAVL
TAF
KAVL 221123Z 2212/2312 34010KT P6SM FEW030 SCT050
     FM221400 34013G24KT P6SM SCT050
     FM222300 33009KT P6SM SCT070
     FM230600 00000KT P6SM FEW070=



000
FTUS42 KGSP 221123
TAFGSP
TAF
KGSP 221123Z 2212/2312 32004KT P6SM FEW080
     FM221500 34010G18KT P6SM SCT060
     FM230000 30005KT P6SM FEW080=



000
FTUS42 KGSP 220027 AAA
TAFCLT
TAF AMD
KCLT 220027Z 2200/2224 17004KT P6SM SCT030 BKN060 BKN250
     FM220200 34005KT P6SM SCT070
     FM221500 35010G18KT P6SM SCT040=



000
FTUS42 KGSP 212331
TAFGSP
TAF
KGSP 212331Z 2200/2224 31005KT P6SM SCT060
     FM221600 36010G18KT P6SM FEW070=



000
FTUS42 KGSP 212331
TAFCLT
TAF
KCLT 212331Z 2200/2224 05009KT P6SM VCSH FEW035 BKN070 BKN250
      TEMPO 2200/2201 VRB10G18KT 4SM -TSRA BR OVC025CB
     FM220200 34005KT P6SM SCT070
     FM221500 35010G18KT P6SM SCT040=



000
FTUS42 KGSP 212331
TAFAVL
TAF
KAVL 212331Z 2200/2224 32010KT P6SM BKN040
     FM220200 33009KT P6SM SCT025
      TEMPO 2206/2210 6SM BR OVC008
     FM221000 33009G16KT P6SM SCT010
     FM221400 34012G20KT P6SM SCT050=



000
FTUS42 KGSP 212038 AAA
TAFAVL
TAF AMD
KAVL 212038Z 2121/2218 36011G18KT P6SM VCSH BKN045
     FM220000 34010KT P6SM BKN045
     FM220300 34008KT P6SM BKN050
      TEMPO 2206/2210 6SM BR OVC008
     FM221400 34015G25KT P6SM SCT150=



    US Dept of Commerce
    National Oceanic and Atmospheric Administration
    National Weather Service
    1325 East West Highway
    Silver Spring, MD 20910
    Page Author: NWS Internet Services Team
Disclaimer
Information Quality
Credits
Glossary
Privacy Policy
Freedom of Information Act (FOIA)
About Us
Career Opportunities